This is the latest recevied weather packets stored in our database for station/object W0WC. If no packets are shown the sender has not sent any weather packets the latest 10 day(s).
| Time | Temp. | Humidity | Pressure | Rain* | Wind** | Luminosity | Snow |
|---|---|---|---|---|---|---|---|
| 1777931273 | 27.78° C | 44% | 1004.9 hPa | 0 mm | - | 302 W/m² | - |
| 1777930970 | 27.78° C | 44% | 1004.9 hPa | 0 mm | - | 378 W/m² | - |
| 1777930667 | 27.78° C | 44% | 1004.9 hPa | 0 mm | - | 475 W/m² | - |
| 1777930363 | 27.78° C | 44% | 1004.9 hPa | 0 mm | - | 486 W/m² | - |
| 1777930060 | 27.22° C | 43% | 1004.7 hPa | 0 mm | - | 515 W/m² | - |
| 1777929757 | 27.22° C | 44% | 1004.9 hPa | 0 mm | - | 525 W/m² | - |
| 1777929454 | 27.22° C | 44% | 1004.9 hPa | 0 mm | - | 537 W/m² | - |
| 1777929150 | 27.22° C | 44% | 1005 hPa | 0 mm | - | 549 W/m² | - |
| 1777928848 | 27.22° C | 43% | 1004.9 hPa | 0 mm | - | 566 W/m² | - |
| 1777928545 | 27.78° C | 43% | 1005 hPa | 0 mm | - | 576 W/m² | - |
| 1777928242 | 27.78° C | 43% | 1005.2 hPa | 0 mm | - | 591 W/m² | - |
| 1777927940 | 27.22° C | 45% | 1005.2 hPa | 0 mm | - | 602 W/m² | - |
| 1777927638 | 27.22° C | 44% | 1005.4 hPa | 0 mm | - | 618 W/m² | - |
| 1777927336 | 27.78° C | 43% | 1005.4 hPa | 0 mm | - | 631 W/m² | - |
| 1777927035 | 27.78° C | 44% | 1005.3 hPa | 0 mm | - | 642 W/m² | - |
| 1777926732 | 27.78° C | 44% | 1005.5 hPa | 0 mm | - | 652 W/m² | - |
| 1777926432 | 27.22° C | 44% | 1005.6 hPa | 0 mm | - | 666 W/m² | - |
| 1777926129 | 27.22° C | 44% | 1005.6 hPa | 0 mm | - | 680 W/m² | - |
| 1777925826 | 27.78° C | 45% | 1005.4 hPa | 0 mm | - | 694 W/m² | - |
| 1777925524 | 27.22° C | 45% | 1005.5 hPa | 0 mm | - | 719 W/m² | - |
| 1777925221 | 26.67° C | 45% | 1005.9 hPa | 0 mm | - | 766 W/m² | - |
| 1777924912 | 27.22° C | 44% | 1005.7 hPa | 0 mm | - | 649 W/m² | - |
| 1777924608 | 27.78° C | 43% | 1005.7 hPa | 0 mm | - | 629 W/m² | - |
| 1777924304 | 27.22° C | 46% | 1005.8 hPa | 0 mm | - | 744 W/m² | - |
| 1777924001 | 27.78° C | 43% | 1006 hPa | 0 mm | - | 680 W/m² | - |
* Rain latest hour (hover to see other rain measurements)
** Current wind speed in m/s (hover to see current wind gust speed)